Portada
METAR-TAF:

METAR-TAF

Aeroports :

Los Mochis, Mèxic

latitud: 25-41N, longitud: 109-05W, altitud: 4 m

Observació

L'informe es va fer fa 46 minuts, a les 21:41 UTC
Vent 12 kt del Oest/Nord-Oest
Temperatura 29°C
Humitat 48%
Pressió 1012 hPa
Visibilitat: 16.1 km
Núvols disperses a una alçada de 2500 ft

METAR: MMLM 272141Z 30012KT 10SM SCT025 29/17 A2988 RMK 8/400

Hora: 16:27 (22:27 UTC)

Pronòstic

L'informe es va fer fa 4 hores i 58 minuts, a les 17:29 UTC
Pronòstic vàlid del 27 a les 18 UTC al 28 a les 18 UTC
Vent 15 kt del Nord-Oest
Visibilitat: 10 km
Cel clar
Evolucionant progressivament
l' 28 a les 02 UTC al 28 a les 03 UTC
Vent 5 kt del Nord/Nord-Est
A partir de les 28 a les 1700 UTC
Vent 8 kt del Oest/Nord-Oest
Visibilitat: 10 km
Cel clar

TAF: MMLM 271729Z 2718/2818 32015KT P6SM SKC BECMG 2802/2803 02005KT FM281700 30008KT P6SM SKC

Observacions i pronòstics meteorològics de més de 4000 aeroports (METAR i TAF).

Les estacions disponibles són els punts grocs i vermells al mapa.

Posi el ratolí al punt desitjat per veure el nom de l'estació.

Feu clic per veure les observacions i els pronòstics meteorològics.

Per canviar el mapa: feu clic els botons verds amb una creu de color negre per apropar; al botó verd amb un guió per allunyar la imatge; o en les fletxes verdes per a mapes adjacents.


METAR-TAF: